sensor_id;sensor_type;location;lat;lon;timestamp;pressure;altitude;pressure_sealevel;temperature;humidity
44481;BME280;30184;42.018;23.670;2023-04-04T00:02:10;90126.19;;;5.13;97.51
44481;BME280;30184;42.018;23.670;2023-04-04T00:04:39;90113.06;;;5.15;97.34
44481;BME280;30184;42.018;23.670;2023-04-04T00:07:08;90109.63;;;5.15;97.80
44481;BME280;30184;42.018;23.670;2023-04-04T00:09:37;90107.25;;;5.17;97.96
44481;BME280;30184;42.018;23.670;2023-04-04T00:15:02;90115.34;;;5.17;97.80
44481;BME280;30184;42.018;23.670;2023-04-04T00:17:32;90104.25;;;5.15;97.78
44481;BME280;30184;42.018;23.670;2023-04-04T00:20:01;90114.56;;;5.16;97.51
44481;BME280;30184;42.018;23.670;2023-04-04T00:22:30;90106.94;;;5.15;97.67
44481;BME280;30184;42.018;23.670;2023-04-04T00:24:59;90101.56;;;5.15;97.74
44481;BME280;30184;42.018;23.670;2023-04-04T00:27:29;90093.91;;;5.13;97.78
44481;BME280;30184;42.018;23.670;2023-04-04T00:29:58;90096.19;;;5.15;97.83
44481;BME280;30184;42.018;23.670;2023-04-04T00:32:29;90089.19;;;5.17;97.84
44481;BME280;30184;42.018;23.670;2023-04-04T00:34:58;90073.50;;;5.16;97.71
44481;BME280;30184;42.018;23.670;2023-04-04T00:37:29;90073.81;;;5.18;97.72
44481;BME280;30184;42.018;23.670;2023-04-04T00:39:58;90077.69;;;5.17;97.54
44481;BME280;30184;42.018;23.670;2023-04-04T00:42:27;90078.13;;;5.15;97.10
44481;BME280;30184;42.018;23.670;2023-04-04T00:44:56;90082.41;;;5.13;96.99
44481;BME280;30184;42.018;23.670;2023-04-04T00:47:29;90083.25;;;5.10;96.53
44481;BME280;30184;42.018;23.670;2023-04-04T00:50:01;90074.91;;;5.08;96.49
44481;BME280;30184;42.018;23.670;2023-04-04T00:52:36;90091.47;;;5.06;96.29
44481;BME280;30184;42.018;23.670;2023-04-04T00:55:06;90098.09;;;5.02;96.55
44481;BME280;30184;42.018;23.670;2023-04-04T00:57:35;90102.94;;;4.94;97.37
44481;BME280;30184;42.018;23.670;2023-04-04T01:00:04;90108.44;;;4.91;97.97
44481;BME280;30184;42.018;23.670;2023-04-04T01:02:35;90110.06;;;4.88;98.42
44481;BME280;30184;42.018;23.670;2023-04-04T01:05:05;90117.69;;;4.90;98.12
44481;BME280;30184;42.018;23.670;2023-04-04T01:07:34;90106.59;;;4.87;98.14
44481;BME280;30184;42.018;23.670;2023-04-04T01:10:03;90105.84;;;4.87;97.91
44481;BME280;30184;42.018;23.670;2023-04-04T01:12:33;90115.94;;;4.83;97.63
44481;BME280;30184;42.018;23.670;2023-04-04T01:15:02;90111.31;;;4.83;97.48
44481;BME280;30184;42.018;23.670;2023-04-04T01:17:32;90117.56;;;4.80;97.41
44481;BME280;30184;42.018;23.670;2023-04-04T01:20:03;90123.38;;;4.79;97.43
44481;BME280;30184;42.018;23.670;2023-04-04T01:22:40;90125.31;;;4.78;97.34
44481;BME280;30184;42.018;23.670;2023-04-04T01:25:10;90131.00;;;4.80;97.13
44481;BME280;30184;42.018;23.670;2023-04-04T01:27:43;90129.91;;;4.78;97.04
44481;BME280;30184;42.018;23.670;2023-04-04T01:30:16;90128.41;;;4.77;97.13
44481;BME280;30184;42.018;23.670;2023-04-04T01:32:47;90124.34;;;4.72;97.20
44481;BME280;30184;42.018;23.670;2023-04-04T01:35:19;90119.69;;;4.73;97.13
44481;BME280;30184;42.018;23.670;2023-04-04T01:37:51;90131.19;;;4.73;97.31
44481;BME280;30184;42.018;23.670;2023-04-04T01:40:24;90126.56;;;4.74;97.50
44481;BME280;30184;42.018;23.670;2023-04-04T01:42:57;90127.44;;;4.71;97.68
44481;BME280;30184;42.018;23.670;2023-04-04T01:45:28;90134.34;;;4.72;97.85
44481;BME280;30184;42.018;23.670;2023-04-04T01:47:58;90130.97;;;4.68;98.16
44481;BME280;30184;42.018;23.670;2023-04-04T01:50:28;90140.22;;;4.67;98.35
44481;BME280;30184;42.018;23.670;2023-04-04T01:52:57;90135.94;;;4.69;98.31
44481;BME280;30184;42.018;23.670;2023-04-04T01:55:26;90140.53;;;4.69;98.17
44481;BME280;30184;42.018;23.670;2023-04-04T01:57:57;90138.63;;;4.69;98.11
44481;BME280;30184;42.018;23.670;2023-04-04T02:00:26;90134.09;;;4.66;98.11
44481;BME280;30184;42.018;23.670;2023-04-04T02:02:55;90147.53;;;4.66;98.13
44481;BME280;30184;42.018;23.670;2023-04-04T02:05:24;90148.41;;;4.63;97.66
44481;BME280;30184;42.018;23.670;2023-04-04T02:07:53;90157.72;;;4.59;97.34
44481;BME280;30184;42.018;23.670;2023-04-04T02:10:31;90149.22;;;4.60;97.05
44481;BME280;30184;42.018;23.670;2023-04-04T02:13:01;90157.63;;;4.62;97.04
44481;BME280;30184;42.018;23.670;2023-04-04T02:15:33;90147.63;;;4.63;96.73
44481;BME280;30184;42.018;23.670;2023-04-04T02:18:05;90132.44;;;4.56;96.71
44481;BME280;30184;42.018;23.670;2023-04-04T02:20:36;90132.09;;;4.41;98.91
44481;BME280;30184;42.018;23.670;2023-04-04T02:23:05;90128.81;;;4.21;100.00
44481;BME280;30184;42.018;23.670;2023-04-04T02:25:34;90128.25;;;4.13;100.00
44481;BME280;30184;42.018;23.670;2023-04-04T02:28:05;90140.91;;;4.13;100.00
44481;BME280;30184;42.018;23.670;2023-04-04T02:30:34;90137.06;;;4.14;100.00
44481;BME280;30184;42.018;23.670;2023-04-04T02:33:03;90132.31;;;4.05;100.00
44481;BME280;30184;42.018;23.670;2023-04-04T02:35:32;90118.97;;;4.02;100.00
44481;BME280;30184;42.018;23.670;2023-04-04T02:38:02;90111.66;;;4.02;100.00
44481;BME280;30184;42.018;23.670;2023-04-04T02:40:44;90119.50;;;3.97;99.49
44481;BME280;30184;42.018;23.670;2023-04-04T02:43:15;90117.50;;;3.85;98.71
44481;BME280;30184;42.018;23.670;2023-04-04T02:45:46;90108.63;;;3.71;97.98
44481;BME280;30184;42.018;23.670;2023-04-04T02:48:26;90118.78;;;3.64;98.07
44481;BME280;30184;42.018;23.670;2023-04-04T02:50:59;90103.63;;;3.57;98.09
44481;BME280;30184;42.018;23.670;2023-04-04T02:53:29;90105.00;;;3.33;98.04
44481;BME280;30184;42.018;23.670;2023-04-04T02:56:09;90115.72;;;3.17;98.48
44481;BME280;30184;42.018;23.670;2023-04-04T02:58:43;90120.31;;;3.00;98.63
44481;BME280;30184;42.018;23.670;2023-04-04T03:01:13;90117.53;;;2.87;99.01
44481;BME280;30184;42.018;23.670;2023-04-04T03:03:45;90116.94;;;2.80;99.64
44481;BME280;30184;42.018;23.670;2023-04-04T03:06:14;90121.22;;;2.77;100.00
44481;BME280;30184;42.018;23.670;2023-04-04T03:08:43;90117.44;;;2.75;100.00
44481;BME280;30184;42.018;23.670;2023-04-04T03:11:15;90123.13;;;2.77;100.00
44481;BME280;30184;42.018;23.670;2023-04-04T03:13:46;90112.75;;;2.79;100.00
44481;BME280;30184;42.018;23.670;2023-04-04T03:16:20;90117.28;;;2.82;100.00
44481;BME280;30184;42.018;23.670;2023-04-04T03:18:51;90113.03;;;2.84;100.00
44481;BME280;30184;42.018;23.670;2023-04-04T03:21:21;90121.31;;;2.90;100.00
44481;BME280;30184;42.018;23.670;2023-04-04T03:23:50;90112.03;;;2.94;100.00
44481;BME280;30184;42.018;23.670;2023-04-04T03:26:19;90114.94;;;3.00;100.00
44481;BME280;30184;42.018;23.670;2023-04-04T03:28:50;90115.94;;;3.06;100.00
44481;BME280;30184;42.018;23.670;2023-04-04T03:31:21;90106.25;;;3.12;100.00
44481;BME280;30184;42.018;23.670;2023-04-04T03:33:50;90100.38;;;3.17;100.00
44481;BME280;30184;42.018;23.670;2023-04-04T03:36:21;90096.88;;;3.20;100.00
44481;BME280;30184;42.018;23.670;2023-04-04T03:38:50;90097.28;;;3.19;100.00
44481;BME280;30184;42.018;23.670;2023-04-04T03:41:19;90104.91;;;3.20;100.00
44481;BME280;30184;42.018;23.670;2023-04-04T03:43:50;90105.59;;;3.24;100.00
44481;BME280;30184;42.018;23.670;2023-04-04T03:46:19;90100.47;;;3.30;100.00
44481;BME280;30184;42.018;23.670;2023-04-04T03:48:48;90108.44;;;3.33;100.00
44481;BME280;30184;42.018;23.670;2023-04-04T03:51:21;90102.97;;;3.37;100.00
44481;BME280;30184;42.018;23.670;2023-04-04T03:53:51;90103.31;;;3.39;100.00
44481;BME280;30184;42.018;23.670;2023-04-04T03:56:21;90109.03;;;3.41;100.00
44481;BME280;30184;42.018;23.670;2023-04-04T03:58:51;90105.94;;;3.43;100.00
44481;BME280;30184;42.018;23.670;2023-04-04T04:01:22;90109.34;;;3.43;100.00
44481;BME280;30184;42.018;23.670;2023-04-04T04:03:51;90112.34;;;3.45;100.00
44481;BME280;30184;42.018;23.670;2023-04-04T04:06:20;90123.84;;;3.46;100.00
44481;BME280;30184;42.018;23.670;2023-04-04T04:08:49;90128.78;;;3.47;100.00
44481;BME280;30184;42.018;23.670;2023-04-04T04:11:18;90131.06;;;3.49;99.88
44481;BME280;30184;42.018;23.670;2023-04-04T04:13:47;90129.13;;;3.49;99.55
44481;BME280;30184;42.018;23.670;2023-04-04T04:16:18;90126.84;;;3.48;99.10
44481;BME280;30184;42.018;23.670;2023-04-04T04:18:49;90129.19;;;3.46;98.61
44481;BME280;30184;42.018;23.670;2023-04-04T04:21:31;90125.00;;;3.45;98.21
44481;BME280;30184;42.018;23.670;2023-04-04T04:24:00;90123.09;;;3.45;97.98
44481;BME280;30184;42.018;23.670;2023-04-04T04:26:29;90132.28;;;3.44;97.99
44481;BME280;30184;42.018;23.670;2023-04-04T04:28:58;90139.59;;;3.44;97.99
44481;BME280;30184;42.018;23.670;2023-04-04T04:31:32;90146.03;;;3.46;98.02
44481;BME280;30184;42.018;23.670;2023-04-04T04:34:03;90143.03;;;3.44;97.97
44481;BME280;30184;42.018;23.670;2023-04-04T04:36:33;90142.38;;;3.40;97.86
44481;BME280;30184;42.018;23.670;2023-04-04T04:39:20;90148.16;;;3.38;98.09
44481;BME280;30184;42.018;23.670;2023-04-04T04:42:14;90149.31;;;3.37;98.17
44481;BME280;30184;42.018;23.670;2023-04-04T04:44:49;90144.63;;;3.42;98.26
44481;BME280;30184;42.018;23.670;2023-04-04T04:47:20;90149.91;;;3.45;98.35
44481;BME280;30184;42.018;23.670;2023-04-04T04:49:50;90154.50;;;3.45;97.94
44481;BME280;30184;42.018;23.670;2023-04-04T04:52:30;90156.00;;;3.46;97.80
44481;BME280;30184;42.018;23.670;2023-04-04T04:54:59;90157.44;;;3.50;97.75
44481;BME280;30184;42.018;23.670;2023-04-04T04:57:28;90157.03;;;3.52;97.76
44481;BME280;30184;42.018;23.670;2023-04-04T05:00:00;90161.81;;;3.60;97.73
44481;BME280;30184;42.018;23.670;2023-04-04T05:02:32;90158.25;;;3.63;97.82
44481;BME280;30184;42.018;23.670;2023-04-04T05:05:02;90164.31;;;3.67;97.71
44481;BME280;30184;42.018;23.670;2023-04-04T05:07:32;90163.47;;;3.70;97.31
44481;BME280;30184;42.018;23.670;2023-04-04T05:10:03;90159.84;;;3.77;97.34
44481;BME280;30184;42.018;23.670;2023-04-04T05:12:32;90164.63;;;3.86;97.21
44481;BME280;30184;42.018;23.670;2023-04-04T05:15:01;90164.84;;;3.91;96.97
44481;BME280;30184;42.018;23.670;2023-04-04T05:17:31;90159.00;;;3.96;96.65
44481;BME280;30184;42.018;23.670;2023-04-04T05:20:06;90164.50;;;4.05;96.42
44481;BME280;30184;42.018;23.670;2023-04-04T05:22:41;90155.94;;;4.10;96.11
44481;BME280;30184;42.018;23.670;2023-04-04T05:25:11;90157.03;;;4.13;95.88
44481;BME280;30184;42.018;23.670;2023-04-04T05:27:45;90159.63;;;4.17;96.00
44481;BME280;30184;42.018;23.670;2023-04-04T05:30:18;90151.47;;;4.20;96.24
44481;BME280;30184;42.018;23.670;2023-04-04T05:32:58;90156.34;;;4.25;95.86
44481;BME280;30184;42.018;23.670;2023-04-04T05:35:29;90155.47;;;4.28;95.57
44481;BME280;30184;42.018;23.670;2023-04-04T05:38:00;90158.47;;;4.30;95.17
44481;BME280;30184;42.018;23.670;2023-04-04T05:40:30;90161.50;;;4.32;95.07
44481;BME280;30184;42.018;23.670;2023-04-04T05:43:07;90163.78;;;4.34;94.63
44481;BME280;30184;42.018;23.670;2023-04-04T05:45:47;90166.34;;;4.37;94.86
44481;BME280;30184;42.018;23.670;2023-04-04T05:48:17;90170.88;;;4.40;94.54
44481;BME280;30184;42.018;23.670;2023-04-04T05:50:50;90171.97;;;4.43;94.81
44481;BME280;30184;42.018;23.670;2023-04-04T05:53:27;90183.34;;;4.47;95.05
44481;BME280;30184;42.018;23.670;2023-04-04T05:55:58;90191.00;;;4.48;95.55
44481;BME280;30184;42.018;23.670;2023-04-04T05:58:30;90177.81;;;4.54;96.07
44481;BME280;30184;42.018;23.670;2023-04-04T06:01:05;90179.63;;;4.57;96.25
44481;BME280;30184;42.018;23.670;2023-04-04T06:03:35;90176.84;;;4.61;96.21
44481;BME280;30184;42.018;23.670;2023-04-04T06:06:09;90180.63;;;4.63;95.94
44481;BME280;30184;42.018;23.670;2023-04-04T06:08:38;90173.53;;;4.69;95.58
44481;BME280;30184;42.018;23.670;2023-04-04T06:11:16;90177.13;;;4.79;95.86
44481;BME280;30184;42.018;23.670;2023-04-04T06:13:47;90179.81;;;4.92;95.70
44481;BME280;30184;42.018;23.670;2023-04-04T06:16:18;90177.56;;;5.03;95.70
44481;BME280;30184;42.018;23.670;2023-04-04T06:18:49;90177.69;;;5.12;95.23
44481;BME280;30184;42.018;23.670;2023-04-04T06:21:18;90167.38;;;5.23;94.89
44481;BME280;30184;42.018;23.670;2023-04-04T06:23:48;90175.75;;;5.38;94.46
44481;BME280;30184;42.018;23.670;2023-04-04T06:26:17;90172.13;;;5.44;93.13
44481;BME280;30184;42.018;23.670;2023-04-04T06:28:47;90174.03;;;5.56;92.43
44481;BME280;30184;42.018;23.670;2023-04-04T06:31:29;90169.63;;;5.62;90.99
44481;BME280;30184;42.018;23.670;2023-04-04T06:34:06;90170.59;;;5.69;89.17
44481;BME280;30184;42.018;23.670;2023-04-04T06:36:48;90173.13;;;5.85;89.24
44481;BME280;30184;42.018;23.670;2023-04-04T06:39:19;90174.56;;;6.02;89.05
44481;BME280;30184;42.018;23.670;2023-04-04T06:41:50;90171.56;;;6.22;87.74
44481;BME280;30184;42.018;23.670;2023-04-04T06:44:24;90173.56;;;6.43;87.12
44481;BME280;30184;42.018;23.670;2023-04-04T06:46:53;90174.06;;;6.51;84.55
44481;BME280;30184;42.018;23.670;2023-04-04T06:49:25;90183.09;;;6.57;84.52
44481;BME280;30184;42.018;23.670;2023-04-04T06:51:54;90191.56;;;6.68;85.27
44481;BME280;30184;42.018;23.670;2023-04-04T06:54:23;90184.59;;;6.80;85.06
44481;BME280;30184;42.018;23.670;2023-04-04T06:56:52;90189.63;;;6.90;85.15
44481;BME280;30184;42.018;23.670;2023-04-04T06:59:21;90193.13;;;7.00;84.89
44481;BME280;30184;42.018;23.670;2023-04-04T07:01:50;90186.97;;;7.21;85.06
44481;BME280;30184;42.018;23.670;2023-04-04T07:04:19;90196.53;;;7.44;84.21
44481;BME280;30184;42.018;23.670;2023-04-04T07:06:50;90188.91;;;7.52;83.21
44481;BME280;30184;42.018;23.670;2023-04-04T07:09:19;90189.25;;;7.63;81.12
44481;BME280;30184;42.018;23.670;2023-04-04T07:11:54;90189.56;;;7.65;81.19
44481;BME280;30184;42.018;23.670;2023-04-04T07:14:23;90192.59;;;7.67;82.12
44481;BME280;30184;42.018;23.670;2023-04-04T07:16:52;90186.47;;;7.75;81.74
44481;BME280;30184;42.018;23.670;2023-04-04T07:19:21;90182.91;;;7.88;82.11
44481;BME280;30184;42.018;23.670;2023-04-04T07:21:56;90188.06;;;8.04;81.37
44481;BME280;30184;42.018;23.670;2023-04-04T07:24:25;90190.19;;;8.27;81.74
44481;BME280;30184;42.018;23.670;2023-04-04T07:26:55;90193.25;;;8.47;80.17
44481;BME280;30184;42.018;23.670;2023-04-04T07:29:31;90201.25;;;8.69;79.50
44481;BME280;30184;42.018;23.670;2023-04-04T07:32:00;90196.72;;;8.93;79.58
44481;BME280;30184;42.018;23.670;2023-04-04T07:34:29;90205.44;;;9.07;78.01
44481;BME280;30184;42.018;23.670;2023-04-04T07:37:00;90196.69;;;9.21;77.14
44481;BME280;30184;42.018;23.670;2023-04-04T07:39:29;90201.34;;;9.29;76.15
44481;BME280;30184;42.018;23.670;2023-04-04T07:41:59;90208.56;;;9.32;75.72
44481;BME280;30184;42.018;23.670;2023-04-04T07:44:28;90201.66;;;9.31;76.02
44481;BME280;30184;42.018;23.670;2023-04-04T07:46:57;90202.84;;;9.30;75.40
44481;BME280;30184;42.018;23.670;2023-04-04T07:49:32;90197.72;;;9.32;75.55
44481;BME280;30184;42.018;23.670;2023-04-04T07:52:04;90200.44;;;9.32;75.22
44481;BME280;30184;42.018;23.670;2023-04-04T07:54:33;90196.09;;;9.26;74.74
44481;BME280;30184;42.018;23.670;2023-04-04T07:57:02;90189.94;;;9.25;75.33
44481;BME280;30184;42.018;23.670;2023-04-04T07:59:32;90194.59;;;9.16;75.79
44481;BME280;30184;42.018;23.670;2023-04-04T08:02:01;90199.25;;;9.24;76.73
44481;BME280;30184;42.018;23.670;2023-04-04T08:04:30;90195.03;;;9.32;76.13
44481;BME280;30184;42.018;23.670;2023-04-04T08:06:59;90191.72;;;9.28;76.21
44481;BME280;30184;42.018;23.670;2023-04-04T08:09:30;90191.56;;;9.32;76.28
44481;BME280;30184;42.018;23.670;2023-04-04T08:12:02;90195.59;;;9.36;76.84
44481;BME280;30184;42.018;23.670;2023-04-04T08:14:32;90192.59;;;9.44;76.77
44481;BME280;30184;42.018;23.670;2023-04-04T08:17:01;90190.34;;;9.42;76.30
44481;BME280;30184;42.018;23.670;2023-04-04T08:19:32;90200.69;;;9.53;77.43
44481;BME280;30184;42.018;23.670;2023-04-04T08:22:00;90195.59;;;9.46;76.57
44481;BME280;30184;42.018;23.670;2023-04-04T08:24:34;90200.94;;;9.64;77.63
44481;BME280;30184;42.018;23.670;2023-04-04T08:27:04;90203.06;;;9.69;76.76
44481;BME280;30184;42.018;23.670;2023-04-04T08:29:33;90200.00;;;9.76;76.59
44481;BME280;30184;42.018;23.670;2023-04-04T08:32:02;90206.00;;;9.89;75.52
44481;BME280;30184;42.018;23.670;2023-04-04T08:34:31;90204.03;;;9.90;74.95
44481;BME280;30184;42.018;23.670;2023-04-04T08:37:01;90207.31;;;9.94;75.01
44481;BME280;30184;42.018;23.670;2023-04-04T08:39:31;90207.44;;;10.08;75.50
44481;BME280;30184;42.018;23.670;2023-04-04T08:42:02;90196.13;;;10.19;73.45
44481;BME280;30184;42.018;23.670;2023-04-04T08:44:32;90201.19;;;10.26;73.43
44481;BME280;30184;42.018;23.670;2023-04-04T08:47:03;90206.97;;;10.43;72.18
44481;BME280;30184;42.018;23.670;2023-04-04T08:49:33;90207.06;;;10.48;72.24
44481;BME280;30184;42.018;23.670;2023-04-04T08:52:03;90206.50;;;10.68;73.27
44481;BME280;30184;42.018;23.670;2023-04-04T08:54:33;90206.44;;;10.77;71.03
44481;BME280;30184;42.018;23.670;2023-04-04T08:57:03;90204.88;;;10.85;71.28
44481;BME280;30184;42.018;23.670;2023-04-04T08:59:33;90213.44;;;10.93;72.00
44481;BME280;30184;42.018;23.670;2023-04-04T09:02:04;90215.09;;;10.91;72.13
44481;BME280;30184;42.018;23.670;2023-04-04T09:04:42;90212.91;;;10.80;72.74
44481;BME280;30184;42.018;23.670;2023-04-04T09:07:27;90217.94;;;10.72;73.55
44481;BME280;30184;42.018;23.670;2023-04-04T09:10:09;90210.94;;;10.57;75.46
44481;BME280;30184;42.018;23.670;2023-04-04T09:12:47;90205.25;;;10.55;76.86
44481;BME280;30184;42.018;23.670;2023-04-04T09:15:24;90206.84;;;10.61;76.08
44481;BME280;30184;42.018;23.670;2023-04-04T09:18:00;90212.00;;;10.59;76.21
44481;BME280;30184;42.018;23.670;2023-04-04T09:20:34;90209.22;;;10.68;77.43
44481;BME280;30184;42.018;23.670;2023-04-04T09:23:11;90205.53;;;10.80;76.05
44481;BME280;30184;42.018;23.670;2023-04-04T09:25:46;90199.34;;;10.80;76.59
44481;BME280;30184;42.018;23.670;2023-04-04T09:28:32;90198.19;;;10.72;77.90
44481;BME280;30184;42.018;23.670;2023-04-04T09:31:12;90198.81;;;10.91;77.08
44481;BME280;30184;42.018;23.670;2023-04-04T09:33:47;90198.75;;;11.14;75.83
44481;BME280;30184;42.018;23.670;2023-04-04T09:36:38;90190.25;;;11.21;75.51
44481;BME280;30184;42.018;23.670;2023-04-04T09:39:11;90183.22;;;11.15;74.79
44481;BME280;30184;42.018;23.670;2023-04-04T09:41:45;90182.75;;;11.16;73.82
44481;BME280;30184;42.018;23.670;2023-04-04T09:44:23;90187.72;;;11.18;73.23
44481;BME280;30184;42.018;23.670;2023-04-04T09:47:07;90180.34;;;11.18;72.60
44481;BME280;30184;42.018;23.670;2023-04-04T09:49:59;90184.72;;;11.31;73.44
44481;BME280;30184;42.018;23.670;2023-04-04T09:52:35;90181.28;;;11.30;72.37
44481;BME280;30184;42.018;23.670;2023-04-04T09:55:10;90180.72;;;11.41;73.24
44481;BME280;30184;42.018;23.670;2023-04-04T09:57:52;90185.97;;;11.44;71.59
44481;BME280;30184;42.018;23.670;2023-04-04T10:00:40;90187.09;;;11.52;69.78
44481;BME280;30184;42.018;23.670;2023-04-04T10:03:25;90177.81;;;11.59;66.96
44481;BME280;30184;42.018;23.670;2023-04-04T10:06:04;90181.94;;;11.54;66.52
44481;BME280;30184;42.018;23.670;2023-04-04T10:08:57;90174.94;;;11.77;67.66
44481;BME280;30184;42.018;23.670;2023-04-04T10:11:43;90177.66;;;11.92;66.36
44481;BME280;30184;42.018;23.670;2023-04-04T10:14:17;90173.03;;;12.13;68.13
44481;BME280;30184;42.018;23.670;2023-04-04T10:17:08;90173.75;;;12.48;69.71
44481;BME280;30184;42.018;23.670;2023-04-04T10:19:49;90172.34;;;12.73;66.22
44481;BME280;30184;42.018;23.670;2023-04-04T10:22:24;90168.97;;;12.78;63.81
44481;BME280;30184;42.018;23.670;2023-04-04T10:25:04;90166.63;;;12.91;67.38
44481;BME280;30184;42.018;23.670;2023-04-04T10:27:43;90160.84;;;13.24;64.52
44481;BME280;30184;42.018;23.670;2023-04-04T10:30:25;90165.47;;;13.44;63.27
44481;BME280;30184;42.018;23.670;2023-04-04T10:33:06;90158.72;;;13.34;62.13
44481;BME280;30184;42.018;23.670;2023-04-04T10:36:22;90161.53;;;13.45;62.06
44481;BME280;30184;42.018;23.670;2023-04-04T10:39:08;90152.59;;;13.44;60.32
44481;BME280;30184;42.018;23.670;2023-04-04T10:41:41;90160.56;;;13.48;61.18
44481;BME280;30184;42.018;23.670;2023-04-04T10:44:17;90153.94;;;13.29;62.67
44481;BME280;30184;42.018;23.670;2023-04-04T10:47:05;90166.06;;;13.28;62.86
44481;BME280;30184;42.018;23.670;2023-04-04T10:49:52;90159.22;;;13.38;60.14
44481;BME280;30184;42.018;23.670;2023-04-04T10:52:29;90163.72;;;13.41;60.83
44481;BME280;30184;42.018;23.670;2023-04-04T10:55:05;90159.97;;;13.38;58.69
44481;BME280;30184;42.018;23.670;2023-04-04T10:57:41;90153.69;;;13.06;61.39
44481;BME280;30184;42.018;23.670;2023-04-04T11:00:19;90148.13;;;13.16;62.13
44481;BME280;30184;42.018;23.670;2023-04-04T11:02:53;90149.59;;;13.17;62.12
44481;BME280;30184;42.018;23.670;2023-04-04T11:05:29;90149.94;;;13.04;63.13
44481;BME280;30184;42.018;23.670;2023-04-04T11:08:07;90144.69;;;13.00;63.49
44481;BME280;30184;42.018;23.670;2023-04-04T11:10:46;90143.91;;;12.94;64.18
44481;BME280;30184;42.018;23.670;2023-04-04T11:14:00;90140.63;;;12.90;66.34
44481;BME280;30184;42.018;23.670;2023-04-04T11:16:53;90134.09;;;12.82;66.90
44481;BME280;30184;42.018;23.670;2023-04-04T11:19:31;90135.47;;;12.72;66.38
44481;BME280;30184;42.018;23.670;2023-04-04T11:22:15;90139.63;;;12.67;65.52
44481;BME280;30184;42.018;23.670;2023-04-04T11:24:59;90135.53;;;12.57;67.18
44481;BME280;30184;42.018;23.670;2023-04-04T11:27:32;90137.78;;;12.59;67.19
44481;BME280;30184;42.018;23.670;2023-04-04T11:30:11;90129.22;;;12.66;68.22
44481;BME280;30184;42.018;23.670;2023-04-04T11:33:01;90130.84;;;12.78;65.39
44481;BME280;30184;42.018;23.670;2023-04-04T11:35:44;90138.16;;;12.92;64.16
44481;BME280;30184;42.018;23.670;2023-04-04T11:38:31;90134.69;;;13.12;63.61
44481;BME280;30184;42.018;23.670;2023-04-04T11:41:16;90129.50;;;13.34;61.78
44481;BME280;30184;42.018;23.670;2023-04-04T11:43:59;90124.19;;;13.51;65.32
44481;BME280;30184;42.018;23.670;2023-04-04T11:46:41;90117.91;;;13.71;62.30
44481;BME280;30184;42.018;23.670;2023-04-04T11:49:25;90115.53;;;13.84;61.72
44481;BME280;30184;42.018;23.670;2023-04-04T11:52:04;90122.28;;;13.89;59.70
44481;BME280;30184;42.018;23.670;2023-04-04T11:54:51;90121.91;;;14.07;58.67
44481;BME280;30184;42.018;23.670;2023-04-04T11:57:39;90125.56;;;13.98;56.75
44481;BME280;30184;42.018;23.670;2023-04-04T12:00:29;90122.50;;;14.22;56.59
44481;BME280;30184;42.018;23.670;2023-04-04T12:03:09;90121.19;;;14.12;53.07
44481;BME280;30184;42.018;23.670;2023-04-04T12:05:43;90124.69;;;14.18;54.92
44481;BME280;30184;42.018;23.670;2023-04-04T12:08:25;90126.16;;;14.13;51.42
44481;BME280;30184;42.018;23.670;2023-04-04T12:11:09;90135.44;;;13.96;53.97
44481;BME280;30184;42.018;23.670;2023-04-04T12:14:11;90129.25;;;13.38;62.74
44481;BME280;30184;42.018;23.670;2023-04-04T12:17:01;90133.44;;;12.67;65.83
44481;BME280;30184;42.018;23.670;2023-04-04T12:19:34;90134.50;;;12.34;68.33
44481;BME280;30184;42.018;23.670;2023-04-04T12:22:08;90144.56;;;11.49;74.91
44481;BME280;30184;42.018;23.670;2023-04-04T12:25:08;90144.09;;;10.68;75.88
44481;BME280;30184;42.018;23.670;2023-04-04T12:28:08;90148.97;;;10.17;78.45
44481;BME280;30184;42.018;23.670;2023-04-04T12:30:51;90149.97;;;9.95;79.52
44481;BME280;30184;42.018;23.670;2023-04-04T12:33:26;90158.28;;;9.83;80.09
44481;BME280;30184;42.018;23.670;2023-04-04T12:36:01;90159.03;;;9.83;80.30
44481;BME280;30184;42.018;23.670;2023-04-04T12:38:38;90163.09;;;9.88;80.57
44481;BME280;30184;42.018;23.670;2023-04-04T12:41:15;90169.31;;;9.79;80.37
44481;BME280;30184;42.018;23.670;2023-04-04T12:44:02;90158.59;;;9.85;81.32
44481;BME280;30184;42.018;23.670;2023-04-04T12:47:00;90166.56;;;9.88;80.39
44481;BME280;30184;42.018;23.670;2023-04-04T12:49:45;90160.50;;;9.93;78.05
44481;BME280;30184;42.018;23.670;2023-04-04T12:52:45;90165.81;;;9.88;76.94
44481;BME280;30184;42.018;23.670;2023-04-04T12:55:47;90167.03;;;9.87;78.08
44481;BME280;30184;42.018;23.670;2023-04-04T12:58:23;90161.91;;;9.89;79.48
44481;BME280;30184;42.018;23.670;2023-04-04T13:01:15;90161.91;;;9.89;79.98
44481;BME280;30184;42.018;23.670;2023-04-04T13:04:10;90161.16;;;9.88;79.75
44481;BME280;30184;42.018;23.670;2023-04-04T13:07:03;90163.50;;;9.95;80.35
44481;BME280;30184;42.018;23.670;2023-04-04T13:10:01;90163.63;;;10.01;80.73
44481;BME280;30184;42.018;23.670;2023-04-04T13:12:58;90153.03;;;10.12;80.85
44481;BME280;30184;42.018;23.670;2023-04-04T13:20:28;90155.81;;;10.36;81.36
44481;BME280;30184;42.018;23.670;2023-04-04T13:23:29;90167.66;;;10.38;79.57
44481;BME280;30184;42.018;23.670;2023-04-04T13:26:31;90155.44;;;10.43;80.63
44481;BME280;30184;42.018;23.670;2023-04-04T13:29:18;90161.72;;;10.49;81.16
44481;BME280;30184;42.018;23.670;2023-04-04T13:31:57;90167.44;;;10.51;80.75
44481;BME280;30184;42.018;23.670;2023-04-04T13:34:37;90162.53;;;10.64;81.88
44481;BME280;30184;42.018;23.670;2023-04-04T13:37:07;90166.69;;;10.74;78.64
44481;BME280;30184;42.018;23.670;2023-04-04T13:39:36;90168.75;;;10.79;75.61
44481;BME280;30184;42.018;23.670;2023-04-04T13:42:05;90163.34;;;10.94;75.98
44481;BME280;30184;42.018;23.670;2023-04-04T13:44:34;90165.31;;;10.94;75.51